Highland Park, Louisiana
Current Conditions -  °F | °C
As of 5:53 PM on Monday 22 Dec 2014 (Local Time) from KMLU Reporting Station
Clear Clear  
Wind Chill: 16°   Ceiling: Unl
Heat Index: 16°   Visibility: 10mi
Dew Point: 14°   Wind: 3mph
Humidity: 90%   Direction: 160°SSE
Pressure: 29.62"   Gusts: NA
Location:  32.5473°N, 92.2007°W
Report Text: KMLU 222353Z 16003KT 10SM CLR 16/14 A2962 RMK AO2 SLP029 T01610144 10189 20133 53004
Loading
Personal Weather Stations






























Interactive Weather Map New forecast layout! Learn more

10-Day Weather Forecast

Advertisements
Track Severe Weather on mobile